ボゴタ の空港の天気 - METARとTAF

エルドラド国際空港(ボコダ) ( SKBO / BOG ) - コロンビア ボゴタ
飛行場実況気象(Metar)
観測時間10/19 13:00 COT (10/19 18:00 UTC)
風向・風速西 6m/s
視程10km以上
天気現象
全天の8割程度の雲 雲底高度 610m
気温20℃
湿度56%
気圧1024hPa
METARSKBO 191800Z 26012KT 220V290 9999 BKN020TCU 20/11 A3024 RMK TCU E
過去の天気等 Google飛行場航空写真 Wunderground天気予報

過去48時間のMETAR

飛行場予報(TAF)
発表時間: 10/19 12:00 COT (10/19 17:00 UTC)
予報対象時間: 19日13時 COT ~ 20日13時 COT
風向・風速西北西 5m/s
視程10km以上
全天の4割程度の雲 雲底高度 460m
全天の4割程度の雲 雲底高度 2740m
19日13時 COT ~ 19日15時 COT に 確率 40% で一時的に
視程7000m
天気現象雷雨
全天の4割程度の積乱雲 雲底高度 460m
全天の4割程度の雲 雲底高度 610m
19日21時 COT ~ 19日23時 COT に徐々に
風向・風速不定 1m/s
19日23時 COT ~ 20日4時 COT に一時的に
視程6000m
天気現象霧雨
全天の8割程度の雲 雲底高度 520m
20日7時 COT ~ 20日12時 COT に徐々に
風向・風速北東 5m/s
TAF SKBO 191700Z 1918/2018 30009KT 9999 SCT015 SCT090
PROB40 TEMPO 1918/1920 7000 TSRA SCT015CB SCT020
BECMG 2002/2004 VRB02KT
TEMPO 2004/2009 6000 DZ BKN017
BECMG 2012/2017 05010KT TX21/1918Z TN09/2011Z